Time;durP1;ratioP1;P1;durP2;ratioP2;P2;SDS_P1;SDS_P2;PMS_P1;PMS_P2;Temp;Humidity;BMP_temperature;BMP_pressure;BME280_temperature;BME280_humidity;BME280_pressure;Samples;Min_cycle;Max_cycle;Signal;HPM_P1;HPM_P2
2023/12/27 00:02:05;;;;;;;5.00;3.33;;;17.00;69.70;17.80;101320.00;;;;5061797;28;20232;-44
2023/12/27 00:04:30;;;;;;;4.90;3.20;;;16.90;68.80;17.80;101323.00;;;;5064967;28;20182;-44
2023/12/27 00:06:56;;;;;;;6.23;3.40;;;17.00;68.80;17.80;101326.00;;;;5064675;28;20661;-44
2023/12/27 00:09:23;;;;;;;5.27;3.20;;;16.90;68.80;17.80;101323.00;;;;5063466;28;20192;-44
2023/12/27 00:11:49;;;;;;;6.27;3.57;;;16.90;68.80;17.80;101311.00;;;;5059039;28;20206;-44
2023/12/27 00:14:14;;;;;;;4.73;3.30;;;16.90;68.80;17.80;101307.00;;;;5063071;28;20235;-44
2023/12/27 00:16:40;;;;;;;4.47;3.20;;;16.80;68.60;17.80;101311.00;;;;5061323;28;20237;-44
2023/12/27 00:19:06;;;;;;;6.47;3.80;;;16.80;68.70;17.80;101314.00;;;;5061212;28;20185;-44
2023/12/27 00:21:32;;;;;;;4.30;3.00;;;16.90;68.70;17.80;101307.00;;;;5038258;28;20200;-44
2023/12/27 00:23:58;;;;;;;4.80;3.30;;;16.90;69.60;17.70;101319.00;;;;5064528;28;20588;-45
2023/12/27 00:26:23;;;;;;;5.10;3.27;;;16.90;68.80;17.70;101318.00;;;;5063450;28;20227;-44
2023/12/27 00:28:49;;;;;;;4.73;3.20;;;16.80;68.60;17.70;101315.00;;;;5064241;28;20280;-43
2023/12/27 00:31:15;;;;;;;5.10;3.27;;;16.80;68.60;17.70;101308.00;;;;5063632;28;20750;-44
2023/12/27 00:33:40;;;;;;;5.30;3.40;;;16.80;68.50;17.70;101325.00;;;;5061104;28;20194;-44
2023/12/27 00:36:08;;;;;;;5.00;3.23;;;16.80;68.50;17.70;101322.00;;;;5062647;28;20177;-44
2023/12/27 00:38:35;;;;;;;4.03;3.00;;;16.80;69.00;17.70;101315.00;;;;5034444;28;20667;-44
2023/12/27 00:41:01;;;;;;;4.17;3.10;;;16.70;68.50;17.70;101235.00;;;;5051066;28;20216;-43
2023/12/27 00:43:27;;;;;;;4.63;3.20;;;16.80;68.60;17.70;101314.00;;;;5063703;28;20181;-44
2023/12/27 00:45:53;;;;;;;4.97;3.30;;;16.80;68.60;17.70;101305.00;;;;5063785;28;20193;-43
2023/12/27 00:48:18;;;;;;;4.13;3.10;;;16.80;68.70;17.70;101295.00;;;;5063372;28;20192;-43
2023/12/27 00:50:44;;;;;;;4.43;3.13;;;16.80;68.60;17.60;101288.00;;;;5060401;28;20212;-45
2023/12/27 00:53:10;;;;;;;5.47;3.27;;;16.70;68.50;17.60;101283.00;;;;5061042;28;20226;-45
2023/12/27 00:55:36;;;;;;;4.53;3.20;;;16.70;68.50;17.60;101283.00;;;;5064813;28;20180;-46
2023/12/27 00:58:01;;;;;;;4.53;3.10;;;16.70;68.50;17.60;101295.00;;;;5079856;28;20180;-46
2023/12/27 01:00:27;;;;;;;5.07;3.30;;;16.70;68.50;17.60;101276.00;;;;5052385;28;20201;-43
2023/12/27 01:02:53;;;;;;;3.93;3.17;;;16.70;68.50;17.60;101283.00;;;;5062701;28;20190;-43
2023/12/27 01:05:18;;;;;;;4.70;3.23;;;16.70;68.50;17.40;101290.00;;;;5062935;28;20185;-43
2023/12/27 01:07:44;;;;;;;4.90;3.30;;;16.60;68.40;17.60;101289.00;;;;5063427;28;20183;-45
2023/12/27 01:10:10;;;;;;;5.73;3.20;;;16.70;68.50;17.60;101293.00;;;;5058343;28;20215;-45
2023/12/27 01:12:36;;;;;;;5.20;3.27;;;16.60;68.40;17.50;101301.00;;;;5066814;28;20307;-44
2023/12/27 01:15:02;;;;;;;5.87;3.47;;;16.60;68.40;17.50;101293.00;;;;5058918;28;20616;-44
2023/12/27 01:17:27;;;;;;;5.23;3.50;;;16.60;68.40;17.50;101306.00;;;;5059615;28;20562;-44
2023/12/27 01:19:53;;;;;;;5.00;3.17;;;16.60;68.40;17.50;101302.00;;;;5058658;28;20212;-44
2023/12/27 01:22:19;;;;;;;4.57;3.13;;;16.60;68.40;17.50;101302.00;;;;5061236;28;20189;-45
2023/12/27 01:24:44;;;;;;;3.83;3.10;;;16.60;68.50;17.50;101301.00;;;;5062381;28;20187;-44
2023/12/27 01:27:10;;;;;;;4.37;3.17;;;16.50;68.30;17.50;101298.00;;;;5051331;28;20212;-44
2023/12/27 01:29:36;;;;;;;5.30;3.37;;;16.60;68.40;17.50;101302.00;;;;5058166;28;20743;-44
2023/12/27 01:32:02;;;;;;;5.67;3.30;;;16.50;68.40;17.40;101299.00;;;;5058198;28;20627;-49
2023/12/27 01:34:28;;;;;;;6.47;3.30;;;16.50;68.30;17.40;101295.00;;;;5060739;28;20209;-45
2023/12/27 01:36:53;;;;;;;5.67;3.10;;;16.50;68.30;17.40;101284.00;;;;5058396;28;20181;-45
2023/12/27 01:39:19;;;;;;;3.60;3.00;;;16.50;68.30;17.40;101213.00;;;;5067621;28;20778;-44
2023/12/27 01:41:45;;;;;;;5.87;3.20;;;16.50;68.30;17.40;101274.00;;;;5061921;28;20204;-44
2023/12/27 01:44:11;;;;;;;5.70;3.30;;;16.50;68.70;17.40;101274.00;;;;5050675;28;20238;-43
2023/12/27 01:46:37;;;;;;;5.10;3.10;;;16.50;68.40;17.30;101272.00;;;;5060842;28;20188;-43
2023/12/27 01:49:03;;;;;;;6.13;3.17;;;16.50;68.40;17.30;101278.00;;;;5053979;28;20185;-43
2023/12/27 01:51:28;;;;;;;4.70;2.80;;;16.40;68.30;17.30;101260.00;;;;5061329;28;20194;-44
2023/12/27 01:53:56;;;;;;;4.97;3.20;;;16.40;68.30;17.30;101286.00;;;;5013661;28;20209;-44
2023/12/27 01:56:22;;;;;;;5.37;3.17;;;16.40;68.40;17.30;101293.00;;;;5032949;28;20600;-43
2023/12/27 01:58:47;;;;;;;5.00;3.00;;;16.40;68.40;17.30;101288.00;;;;5064193;28;20237;-44
2023/12/27 02:01:13;;;;;;;5.00;3.10;;;16.40;68.30;17.30;101289.00;;;;5062742;28;20196;-43
2023/12/27 02:03:40;;;;;;;6.80;3.00;;;16.40;68.30;17.30;101307.00;;;;5057901;28;20522;-43
2023/12/27 02:06:06;;;;;;;5.13;3.10;;;16.40;68.30;17.30;101288.00;;;;5065487;28;20222;-44
2023/12/27 02:08:32;;;;;;;4.87;3.03;;;16.30;68.20;17.20;101273.00;;;;5035069;28;20180;-44
2023/12/27 02:10:57;;;;;;;3.80;3.00;;;16.30;68.20;17.20;101302.00;;;;5049744;28;20210;-43
2023/12/27 02:13:23;;;;;;;3.93;2.90;;;16.30;68.30;17.20;101306.00;;;;5048713;28;20324;-44
2023/12/27 02:15:51;;;;;;;4.97;2.90;;;16.20;68.10;17.20;101308.00;;;;5057855;28;20172;-44
2023/12/27 02:18:17;;;;;;;4.50;2.97;;;16.30;68.30;17.20;101293.00;;;;5059720;28;20175;-43
2023/12/27 02:20:42;;;;;;;4.37;2.90;;;16.20;68.10;17.20;101270.00;;;;5030009;28;20801;-44
2023/12/27 02:23:10;;;;;;;4.37;3.10;;;16.30;68.10;17.20;101263.00;;;;5032052;28;20226;-43
2023/12/27 02:25:36;;;;;;;3.57;2.93;;;16.30;68.10;17.10;101271.00;;;;5029980;28;20178;-43
2023/12/27 02:28:02;;;;;;;4.47;2.80;;;16.30;68.10;17.10;101273.00;;;;5048053;28;20695;-44
2023/12/27 02:30:30;;;;;;;5.33;3.40;;;16.20;68.00;17.10;101275.00;;;;5065742;28;20579;-44
2023/12/27 02:32:55;;;;;;;4.97;3.00;;;16.20;68.00;17.10;101271.00;;;;5061113;28;20213;-44
2023/12/27 02:35:21;;;;;;;4.80;2.93;;;16.20;68.00;17.10;101259.00;;;;5055455;28;20667;-44
2023/12/27 02:37:47;;;;;;;3.87;2.80;;;16.20;68.00;17.00;101263.00;;;;5066193;28;20185;-44
2023/12/27 02:40:13;;;;;;;4.00;2.77;;;16.20;68.00;17.00;101259.00;;;;5062646;28;20193;-43
2023/12/27 02:42:40;;;;;;;4.57;2.90;;;16.10;68.00;17.00;101268.00;;;;5065342;28;20345;-44
2023/12/27 02:45:06;;;;;;;4.20;2.93;;;16.10;68.00;17.00;101260.00;;;;5064385;28;20181;-44
2023/12/27 02:47:33;;;;;;;4.60;2.70;;;16.10;68.00;17.00;101251.00;;;;5069375;28;20244;-44
2023/12/27 02:49:59;;;;;;;4.37;2.70;;;16.10;68.00;17.00;101260.00;;;;5079533;28;20201;-44
2023/12/27 02:52:24;;;;;;;3.33;2.90;;;16.10;68.00;17.00;101240.00;;;;5060826;28;20199;-44
2023/12/27 02:54:50;;;;;;;4.87;2.93;;;16.10;68.00;17.00;101236.00;;;;5053998;28;20178;-45
2023/12/27 02:57:16;;;;;;;3.93;2.80;;;16.00;67.80;17.00;101235.00;;;;5064896;28;20203;-43
2023/12/27 02:59:41;;;;;;;3.57;2.70;;;16.00;67.80;16.90;101231.00;;;;5066985;28;20181;-44
2023/12/27 03:02:07;;;;;;;4.10;2.80;;;16.00;67.80;16.90;101230.00;;;;5072106;28;20185;-44
2023/12/27 03:04:33;;;;;;;4.53;2.80;;;16.00;67.80;16.90;101219.00;;;;5071221;28;20171;-43
2023/12/27 03:06:59;;;;;;;3.93;2.90;;;16.00;67.80;16.90;101216.00;;;;5034026;28;20648;-44
2023/12/27 03:09:24;;;;;;;5.67;2.90;;;16.00;67.80;16.90;101215.00;;;;5063660;28;20200;-44
2023/12/27 03:11:51;;;;;;;4.23;2.70;;;15.90;67.70;16.80;101224.00;;;;5064244;28;20236;-43
2023/12/27 03:14:17;;;;;;;3.63;2.77;;;15.90;67.70;16.80;101226.00;;;;5057308;28;20647;-44
2023/12/27 03:16:43;;;;;;;3.37;2.80;;;15.90;67.70;16.80;101228.00;;;;5061068;28;20497;-44
2023/12/27 03:19:08;;;;;;;4.90;2.93;;;15.90;67.70;16.80;101220.00;;;;5061108;28;20179;-44
2023/12/27 03:21:34;;;;;;;5.87;3.03;;;15.90;67.70;16.80;101212.00;;;;5064092;28;20828;-44
2023/12/27 03:24:00;;;;;;;4.33;2.83;;;15.90;67.70;16.80;101218.00;;;;5064076;28;20730;-44
2023/12/27 03:26:26;;;;;;;4.23;2.77;;;15.90;67.70;16.80;101211.00;;;;5062421;28;20202;-43
2023/12/27 03:28:51;;;;;;;5.07;2.67;;;15.90;67.70;16.80;101213.00;;;;5064247;28;20256;-44
2023/12/27 03:31:17;;;;;;;4.43;3.03;;;15.90;67.80;16.80;101210.00;;;;5063533;28;20695;-44
2023/12/27 03:33:43;;;;;;;3.83;2.67;;;15.80;67.80;16.80;101207.00;;;;5056400;28;20199;-44
2023/12/27 03:36:08;;;;;;;4.20;2.80;;;15.80;67.80;16.70;101193.00;;;;5062495;28;20174;-43
2023/12/27 03:38:34;;;;;;;4.30;2.70;;;15.80;67.90;16.70;101197.00;;;;5037556;28;20165;-43
2023/12/27 03:41:00;;;;;;;3.50;2.60;;;15.80;67.90;16.70;101194.00;;;;5063560;28;20709;-44
2023/12/27 03:43:26;;;;;;;3.77;2.80;;;15.80;67.90;16.70;101201.00;;;;5062147;28;20169;-43
2023/12/27 03:45:54;;;;;;;3.97;2.83;;;15.80;67.90;16.70;101118.00;;;;5060060;28;20193;-43
2023/12/27 03:48:20;;;;;;;3.37;2.50;;;15.80;68.00;16.70;101185.00;;;;5062210;28;20561;-43
2023/12/27 03:50:47;;;;;;;4.30;2.67;;;15.80;68.00;16.70;101182.00;;;;5063278;28;20299;-43
2023/12/27 03:53:12;;;;;;;4.47;2.70;;;15.80;68.00;16.70;101183.00;;;;5063466;28;20210;-44
2023/12/27 03:55:41;;;;;;;3.67;2.77;;;15.80;68.30;16.70;101173.00;;;;5059909;28;20175;-44
2023/12/27 03:58:06;;;;;;;3.53;2.63;;;15.70;68.40;16.60;101180.00;;;;5066848;28;20192;-44
2023/12/27 04:00:32;;;;;;;3.20;2.50;;;15.70;68.40;16.60;101172.00;;;;5062966;28;20197;-45
2023/12/27 04:02:58;;;;;;;3.97;2.67;;;15.70;68.40;16.60;101166.00;;;;5064337;28;20551;-43
2023/12/27 04:05:24;;;;;;;4.63;3.00;;;15.70;68.40;16.60;101174.00;;;;5056180;28;20240;-44
2023/12/27 04:07:49;;;;;;;5.43;2.97;;;15.70;68.60;16.60;101177.00;;;;5060953;28;20252;-44
2023/12/27 04:10:15;;;;;;;4.93;2.73;;;15.70;68.60;16.60;101172.00;;;;5061833;28;20198;-43
2023/12/27 04:12:41;;;;;;;4.20;2.87;;;15.70;68.40;16.60;101174.00;;;;5065069;28;20243;-44
2023/12/27 04:15:07;;;;;;;3.60;2.60;;;15.70;68.40;16.60;101170.00;;;;5065752;28;20175;-44
2023/12/27 04:17:33;;;;;;;4.73;2.60;;;15.70;68.40;16.60;101177.00;;;;5061216;28;20606;-43
2023/12/27 04:19:59;;;;;;;2.90;2.43;;;15.70;68.40;16.60;101170.00;;;;5060180;28;20282;-44
2023/12/27 04:22:24;;;;;;;3.87;2.63;;;15.70;68.30;16.50;101160.00;;;;5063020;28;20200;-44
2023/12/27 04:24:50;;;;;;;4.07;2.50;;;15.70;68.30;16.50;101164.00;;;;5035985;28;20209;-43
2023/12/27 04:27:16;;;;;;;4.60;2.70;;;15.60;68.10;16.50;101153.00;;;;5066664;28;20182;-43
2023/12/27 04:29:41;;;;;;;5.97;2.70;;;15.60;68.40;16.50;101156.00;;;;5069100;28;20204;-42
2023/12/27 04:32:07;;;;;;;4.83;2.50;;;15.60;68.60;16.50;101154.00;;;;5067269;28;20181;-44
2023/12/27 04:34:33;;;;;;;4.73;2.70;;;15.60;68.80;16.50;101158.00;;;;5054532;28;20173;-43
2023/12/27 04:36:58;;;;;;;3.50;2.77;;;15.60;68.70;16.40;101161.00;;;;5053836;28;20221;-43
2023/12/27 04:39:24;;;;;;;4.40;2.43;;;15.60;68.40;16.40;101143.00;;;;5061994;28;20174;-44
2023/12/27 04:41:50;;;;;;;9.63;2.80;;;15.60;68.20;16.40;101139.00;;;;5069796;28;20198;-45
2023/12/27 04:44:15;;;;;;;3.07;2.33;;;15.60;68.30;16.40;101142.00;;;;5060866;28;20201;-43
2023/12/27 04:46:41;;;;;;;4.57;2.50;;;15.60;68.20;16.40;101145.00;;;;5056783;28;20200;-44
2023/12/27 04:49:09;;;;;;;4.13;2.63;;;15.60;68.20;16.40;101145.00;;;;5056699;28;20183;-43
2023/12/27 04:51:35;;;;;;;5.33;2.50;;;15.60;68.20;16.40;101135.00;;;;5053568;28;20200;-44
2023/12/27 04:54:02;;;;;;;4.30;2.50;;;15.60;68.20;16.40;101136.00;;;;5068155;28;20210;-44
2023/12/27 04:56:28;;;;;;;3.57;2.40;;;15.50;68.10;16.40;101127.00;;;;5071705;28;20181;-44
2023/12/27 04:58:54;;;;;;;4.07;2.33;;;15.50;68.10;16.30;101124.00;;;;5062614;28;20213;-44
2023/12/27 05:01:20;;;;;;;4.07;2.40;;;15.60;68.20;16.30;101120.00;;;;5061974;28;20237;-44
2023/12/27 05:03:45;;;;;;;4.00;2.40;;;15.50;68.10;16.30;101121.00;;;;5059513;28;20186;-43
2023/12/27 05:06:12;;;;;;;3.73;2.33;;;15.50;68.00;16.30;101106.00;;;;5060036;28;20182;-44
2023/12/27 05:08:41;;;;;;;5.73;2.57;;;15.50;68.10;16.30;101131.00;;;;5051687;28;20178;-44
2023/12/27 05:11:11;;;;;;;3.33;2.33;;;15.50;68.10;16.30;101126.00;;;;5062769;28;20202;-44
2023/12/27 05:13:37;;;;;;;4.07;2.47;;;15.50;68.10;16.30;101125.00;;;;5047915;28;20225;-43
2023/12/27 05:16:13;;;;;;;4.43;2.30;;;15.50;68.20;16.30;101127.00;;;;5058807;28;20234;-44
2023/12/27 05:18:39;;;;;;;3.67;2.60;;;15.50;68.20;16.30;101120.00;;;;5059135;28;20174;-43
2023/12/27 05:21:06;;;;;;;3.73;2.47;;;15.50;68.40;16.30;101128.00;;;;5050697;28;20451;-44
2023/12/27 05:23:32;;;;;;;3.80;2.37;;;15.40;68.20;16.20;101123.00;;;;5062048;28;20189;-44
2023/12/27 05:25:58;;;;;;;5.40;2.80;;;15.40;68.50;16.20;101110.00;;;;5051562;28;20242;-44
2023/12/27 05:28:23;;;;;;;3.27;2.30;;;15.50;68.60;16.20;101122.00;;;;5060906;28;20264;-43
2023/12/27 05:30:49;;;;;;;4.40;2.40;;;15.40;68.60;16.20;101112.00;;;;5061948;28;20206;-43
2023/12/27 05:33:15;;;;;;;4.30;2.50;;;15.40;68.80;16.20;101120.00;;;;5051154;28;20209;-44
2023/12/27 05:35:41;;;;;;;5.50;2.50;;;15.40;69.00;16.20;101113.00;;;;5056765;28;20622;-44
2023/12/27 05:38:06;;;;;;;7.27;2.53;;;15.40;69.00;16.20;101118.00;;;;5062383;28;20182;-44
2023/12/27 05:40:32;;;;;;;9.67;2.90;;;15.40;69.00;16.20;101117.00;;;;5059011;28;20209;-43
2023/12/27 05:42:58;;;;;;;7.77;2.67;;;15.40;68.90;16.20;101113.00;;;;5058363;28;20627;-43
2023/12/27 05:45:24;;;;;;;6.77;2.90;;;15.40;68.80;16.20;101109.00;;;;5060695;28;20194;-44
2023/12/27 05:47:50;;;;;;;12.70;3.03;;;15.30;68.80;16.20;101107.00;;;;5061856;28;20181;-43
2023/12/27 05:50:15;;;;;;;8.30;2.80;;;15.40;68.80;16.20;101103.00;;;;5061298;28;20210;-43
2023/12/27 05:52:41;;;;;;;7.87;2.70;;;15.30;68.80;16.20;101101.00;;;;5058478;28;20282;-43
2023/12/27 05:55:07;;;;;;;10.30;2.80;;;15.30;68.80;16.20;101102.00;;;;5058912;28;20601;-42
2023/12/27 05:57:33;;;;;;;7.00;2.73;;;15.30;68.80;16.20;101092.00;;;;5062047;28;20202;-42
2023/12/27 05:59:59;;;;;;;7.03;2.87;;;15.30;68.80;16.10;101083.00;;;;5061792;28;20279;-43
2023/12/27 06:02:24;;;;;;;11.40;2.73;;;15.30;68.80;16.10;101100.00;;;;5061010;28;20753;-44
2023/12/27 06:04:50;;;;;;;6.70;2.80;;;15.30;68.80;16.10;101088.00;;;;5061819;28;20196;-44
2023/12/27 06:07:16;;;;;;;8.27;3.00;;;15.30;68.90;16.10;101082.00;;;;5061409;28;20234;-43
2023/12/27 06:09:42;;;;;;;6.70;2.87;;;15.30;68.90;16.10;101082.00;;;;5058112;28;20197;-44
2023/12/27 06:12:08;;;;;;;7.67;3.00;;;15.30;69.00;16.10;101081.00;;;;5072076;28;20569;-45
2023/12/27 06:14:35;;;;;;;10.13;2.90;;;15.30;69.00;16.10;101071.00;;;;5040220;28;20192;-45
2023/12/27 06:17:01;;;;;;;5.73;2.57;;;15.30;69.00;16.10;101072.00;;;;5062298;28;20170;-45
2023/12/27 06:19:28;;;;;;;7.37;2.67;;;15.30;69.20;16.10;101080.00;;;;5058577;28;20215;-46
2023/12/27 06:21:53;;;;;;;13.40;2.90;;;15.20;69.20;16.10;101085.00;;;;5049828;28;20646;-45
2023/12/27 06:24:19;;;;;;;9.40;2.60;;;15.30;69.30;16.10;101083.00;;;;5058350;28;20186;-46
2023/12/27 06:26:45;;;;;;;6.60;2.40;;;15.20;69.20;16.10;101078.00;;;;5057842;28;20189;-46
2023/12/27 06:29:11;;;;;;;7.17;2.80;;;15.20;69.10;16.10;101069.00;;;;5068141;28;20177;-46
2023/12/27 06:31:37;;;;;;;5.07;2.50;;;15.20;69.20;16.10;101065.00;;;;5062563;28;20202;-45
2023/12/27 06:34:02;;;;;;;7.53;2.70;;;15.20;69.10;16.10;101056.00;;;;5080098;28;20206;-45
2023/12/27 06:36:28;;;;;;;7.97;3.00;;;15.20;69.00;16.10;101059.00;;;;5065442;28;20187;-45
2023/12/27 06:38:54;;;;;;;6.33;2.60;;;15.20;69.10;16.10;101051.00;;;;5062217;28;20178;-44
2023/12/27 06:41:19;;;;;;;6.03;2.50;;;15.20;69.10;16.00;101047.00;;;;5063938;28;20218;-44
2023/12/27 06:43:45;;;;;;;6.70;2.90;;;15.20;69.10;16.00;101052.00;;;;5066714;28;20196;-46
2023/12/27 06:46:11;;;;;;;5.67;2.30;;;15.20;69.10;16.00;101048.00;;;;5073789;28;20185;-45
2023/12/27 06:48:36;;;;;;;2.70;2.20;;;15.20;69.00;16.00;101045.00;;;;5071696;28;20182;-45
2023/12/27 06:51:05;;;;;;;3.60;2.33;;;15.20;69.00;16.00;101033.00;;;;5061505;28;20686;-47
2023/12/27 06:53:30;;;;;;;4.73;2.47;;;15.10;69.10;16.00;101033.00;;;;5064683;28;20212;-45
2023/12/27 06:55:56;;;;;;;3.53;2.10;;;15.20;69.20;16.00;101030.00;;;;5064744;28;20181;-46
2023/12/27 06:58:22;;;;;;;4.60;2.23;;;15.10;69.10;16.00;101023.00;;;;5062560;28;20173;-45
2023/12/27 07:00:48;;;;;;;7.93;2.70;;;15.10;69.10;16.00;101022.00;;;;5074549;28;20212;-45
2023/12/27 07:03:13;;;;;;;4.10;2.50;;;15.10;69.10;16.00;101021.00;;;;5062187;28;20182;-45
2023/12/27 07:05:39;;;;;;;3.57;2.13;;;15.10;69.10;16.00;101020.00;;;;5064028;28;20552;-45
2023/12/27 07:08:05;;;;;;;6.43;2.60;;;15.10;69.00;16.00;101020.00;;;;5062722;28;20267;-45
2023/12/27 07:10:31;;;;;;;3.67;2.20;;;15.10;69.10;16.00;101020.00;;;;5065265;28;20293;-45
2023/12/27 07:12:57;;;;;;;3.13;2.30;;;15.10;69.10;16.00;101015.00;;;;5075848;28;20289;-45
2023/12/27 07:15:23;;;;;;;9.00;2.30;;;15.10;69.10;16.00;101000.00;;;;5063114;28;20193;-44
2023/12/27 07:17:49;;;;;;;3.90;2.10;;;15.10;69.10;16.00;100988.00;;;;5045818;28;20657;-45
2023/12/27 07:20:15;;;;;;;2.87;2.10;;;15.10;69.10;15.90;101000.00;;;;5052797;28;20197;-44
2023/12/27 07:22:40;;;;;;;3.20;2.20;;;15.10;69.10;15.90;100994.00;;;;5060605;28;20576;-44
2023/12/27 07:25:06;;;;;;;3.30;2.10;;;15.10;69.10;15.90;100988.00;;;;5034591;28;20190;-45
2023/12/27 07:27:32;;;;;;;3.83;2.00;;;15.10;69.90;15.90;100997.00;;;;5060575;28;20900;-45
2023/12/27 07:29:58;;;;;;;3.23;2.10;;;15.10;69.10;15.90;100997.00;;;;5060829;28;20202;-44
2023/12/27 07:32:23;;;;;;;3.50;2.00;;;15.10;69.20;15.90;100987.00;;;;5056546;28;20186;-46
2023/12/27 07:34:49;;;;;;;4.33;2.17;;;15.00;69.00;15.90;100984.00;;;;5060179;28;20544;-45
2023/12/27 07:37:15;;;;;;;2.90;2.10;;;15.00;69.00;15.90;100984.00;;;;5061141;28;20181;-45
2023/12/27 07:39:41;;;;;;;3.33;2.17;;;15.00;69.10;15.90;100991.00;;;;5060078;28;20178;-45
2023/12/27 07:42:07;;;;;;;3.73;2.20;;;15.00;69.10;15.90;100990.00;;;;5060920;28;20199;-46
2023/12/27 07:44:32;;;;;;;3.03;2.20;;;15.00;69.30;15.90;100990.00;;;;5063689;28;20625;-45
2023/12/27 07:46:58;;;;;;;3.97;2.10;;;15.00;69.40;15.90;100993.00;;;;5063397;28;20804;-45
2023/12/27 07:49:25;;;;;;;2.60;2.03;;;15.00;69.40;15.90;101000.00;;;;5057260;28;20186;-46
2023/12/27 07:51:51;;;;;;;3.60;2.00;;;15.00;69.40;15.90;100983.00;;;;5057869;28;20224;-45
2023/12/27 07:54:16;;;;;;;5.20;2.10;;;15.00;69.40;15.90;100981.00;;;;5063174;28;20684;-45
2023/12/27 07:56:42;;;;;;;2.27;2.00;;;15.00;69.40;15.90;100995.00;;;;5033697;28;20177;-45
2023/12/27 07:59:08;;;;;;;2.53;1.87;;;15.00;69.40;15.90;100992.00;;;;5065558;28;20182;-44
2023/12/27 08:01:33;;;;;;;2.50;1.90;;;15.00;69.50;15.90;100991.00;;;;5059819;28;20241;-44
2023/12/27 08:03:59;;;;;;;2.60;2.23;;;15.00;69.50;15.80;100985.00;;;;5059815;28;20301;-44
2023/12/27 08:06:26;;;;;;;4.13;2.57;;;15.00;69.80;15.80;100998.00;;;;5068763;28;20702;-45
2023/12/27 08:08:53;;;;;;;3.43;2.33;;;15.00;69.90;15.80;100989.00;;;;5059209;28;20666;-44
2023/12/27 08:11:20;;;;;;;3.30;2.40;;;15.00;70.30;15.80;100998.00;;;;5061272;28;20232;-45
2023/12/27 08:13:46;;;;;;;2.60;1.90;;;15.10;70.50;15.90;100993.00;;;;5063327;28;20206;-44
2023/12/27 08:16:12;;;;;;;4.57;2.30;;;15.20;70.50;15.90;101006.00;;;;5063359;28;20174;-44
2023/12/27 08:18:38;;;;;;;3.27;2.30;;;15.20;70.40;15.90;100993.00;;;;5054723;28;20669;-44
2023/12/27 08:21:04;;;;;;;3.60;2.30;;;15.30;70.50;16.00;100989.00;;;;5052400;28;20276;-44
2023/12/27 08:23:30;;;;;;;4.33;2.37;;;15.40;70.60;16.10;100981.00;;;;5061463;28;20379;-44
2023/12/27 08:25:57;;;;;;;4.87;2.50;;;15.50;70.50;16.20;100977.00;;;;5085143;28;20174;-46
2023/12/27 08:28:23;;;;;;;2.80;2.17;;;15.70;70.40;16.30;100970.00;;;;5062142;28;20598;-44
2023/12/27 08:30:49;;;;;;;3.97;2.10;;;15.80;70.20;16.30;100976.00;;;;5057238;28;20323;-46
2023/12/27 08:33:15;;;;;;;4.23;2.20;;;15.90;70.00;16.50;100971.00;;;;5059991;28;20585;-45
2023/12/27 08:35:40;;;;;;;7.77;2.50;;;16.10;69.80;16.60;100982.00;;;;5057257;28;20643;-45
2023/12/27 08:38:08;;;;;;;3.70;2.00;;;16.30;69.70;16.70;100988.00;;;;5070248;28;20197;-52
2023/12/27 08:40:34;;;;;;;4.07;2.30;;;16.40;69.40;16.80;100986.00;;;;5070539;28;20649;-45
2023/12/27 08:43:00;;;;;;;5.40;2.30;;;16.50;69.10;16.90;100996.00;;;;5064414;28;20190;-45
2023/12/27 08:45:25;;;;;;;4.37;1.83;;;16.70;69.00;17.00;100989.00;;;;5064282;28;20574;-45
2023/12/27 08:47:51;;;;;;;4.50;1.93;;;16.80;68.90;17.10;100996.00;;;;5052609;28;20183;-45
2023/12/27 08:50:17;;;;;;;3.23;1.80;;;16.90;68.80;17.20;101002.00;;;;5060683;28;20206;-48
2023/12/27 08:52:43;;;;;;;3.60;1.90;;;17.00;68.80;17.30;100986.00;;;;5058140;28;20203;-44
2023/12/27 08:55:10;;;;;;;3.77;1.97;;;17.10;68.80;17.40;100978.00;;;;5058652;28;20193;-45
2023/12/27 08:57:36;;;;;;;4.20;2.13;;;17.20;68.60;17.50;100976.00;;;;5061457;28;20179;-45
2023/12/27 09:00:06;;;;;;;4.60;1.80;;;17.30;68.60;17.60;100971.00;;;;5060533;28;20206;-46
2023/12/27 09:02:31;;;;;;;3.67;2.00;;;17.40;68.60;17.70;100973.00;;;;5035728;28;20191;-44
2023/12/27 09:04:57;;;;;;;2.43;2.00;;;17.40;68.70;17.80;100968.00;;;;5061757;28;20177;-46
2023/12/27 09:07:23;;;;;;;3.90;1.87;;;17.50;68.80;17.80;100972.00;;;;5059603;28;20180;-44
2023/12/27 09:09:48;;;;;;;2.40;1.80;;;17.60;68.90;17.90;100958.00;;;;5060386;28;20184;-45
2023/12/27 09:12:14;;;;;;;3.37;1.77;;;17.70;68.70;18.00;100960.00;;;;5041618;28;20209;-45
2023/12/27 09:14:40;;;;;;;4.30;1.90;;;17.70;68.50;18.10;100955.00;;;;5061262;28;20604;-46
2023/12/27 09:17:06;;;;;;;4.90;2.07;;;17.80;68.60;18.20;100949.00;;;;5053855;28;20216;-45
2023/12/27 09:19:32;;;;;;;2.33;1.90;;;17.90;68.50;18.20;100948.00;;;;5048827;28;20228;-46
2023/12/27 09:21:57;;;;;;;3.70;1.90;;;17.90;68.40;18.30;100943.00;;;;5050327;28;20282;-46
2023/12/27 09:24:23;;;;;;;2.70;1.70;;;18.00;68.40;18.40;100932.00;;;;5059349;28;20720;-46
2023/12/27 09:26:49;;;;;;;2.43;1.70;;;18.10;68.40;18.50;100926.00;;;;5060223;28;20182;-46
2023/12/27 09:29:15;;;;;;;2.17;1.80;;;18.10;68.40;18.50;100931.00;;;;5066025;28;20215;-45
2023/12/27 09:31:41;;;;;;;2.37;1.60;;;18.20;68.30;18.60;100942.00;;;;5057182;28;20236;-44
2023/12/27 09:34:07;;;;;;;2.33;1.80;;;18.30;68.30;18.70;100940.00;;;;5051885;28;20757;-45
2023/12/27 09:36:32;;;;;;;2.70;1.80;;;18.40;68.20;18.70;100939.00;;;;5057938;28;20182;-45
2023/12/27 09:38:59;;;;;;;3.47;1.80;;;18.40;68.30;18.80;100931.00;;;;5056608;28;20902;-45
2023/12/27 09:41:25;;;;;;;3.43;1.70;;;18.50;68.30;18.80;100937.00;;;;5059290;28;20200;-45
2023/12/27 09:43:55;;;;;;;1.90;1.70;;;18.50;68.20;18.90;100933.00;;;;5030755;28;20627;-46
2023/12/27 09:46:21;;;;;;;2.70;1.90;;;18.50;68.20;18.90;100929.00;;;;5062971;28;20715;-45
2023/12/27 09:48:48;;;;;;;2.73;1.70;;;18.60;68.20;19.00;100925.00;;;;5050017;28;20170;-45
2023/12/27 09:51:13;;;;;;;2.33;1.90;;;18.60;68.20;19.10;100933.00;;;;5050075;28;20674;-44
2023/12/27 09:53:43;;;;;;;2.33;1.70;;;18.70;68.20;19.10;100936.00;;;;5082215;28;20198;-45
2023/12/27 09:56:09;;;;;;;2.03;1.60;;;18.70;68.40;19.10;100912.00;;;;5032272;28;20224;-44
2023/12/27 09:58:36;;;;;;;2.00;1.67;;;18.70;68.50;19.10;100919.00;;;;5031076;28;20179;-45
2023/12/27 10:01:02;;;;;;;1.70;1.60;;;18.70;68.60;19.10;100926.00;;;;5060293;28;20670;-45
2023/12/27 10:03:35;;;;;;;1.70;1.60;;;18.60;68.60;19.20;100918.00;;;;5047081;28;20181;-45
2023/12/27 10:06:26;;;;;;;1.93;1.60;;;18.70;68.80;19.20;100921.00;;;;5056632;28;20182;-45
2023/12/27 10:08:52;;;;;;;1.53;1.40;;;18.70;68.80;19.20;100929.00;;;;5055693;28;20872;-45
2023/12/27 10:11:18;;;;;;;4.03;1.80;;;18.70;68.80;19.20;100923.00;;;;5059739;28;20213;-47
2023/12/27 10:13:43;;;;;;;2.47;1.77;;;18.70;68.80;19.30;100900.00;;;;5047348;28;20202;-44
2023/12/27 10:16:09;;;;;;;1.77;1.60;;;18.70;68.80;19.30;100919.00;;;;5050198;28;20178;-45
2023/12/27 10:18:35;;;;;;;1.60;1.50;;;18.80;68.80;19.30;100923.00;;;;5031320;28;20213;-46
2023/12/27 10:21:01;;;;;;;1.60;1.50;;;18.80;68.80;19.30;100902.00;;;;5064353;28;20664;-47
2023/12/27 10:23:27;;;;;;;2.73;1.70;;;18.80;68.80;19.40;100909.00;;;;5060925;28;20230;-46
2023/12/27 10:25:53;;;;;;;3.37;1.70;;;18.90;68.80;19.40;100902.00;;;;5050732;28;20576;-46
2023/12/27 10:28:24;;;;;;;1.60;1.50;;;18.90;68.70;19.40;100899.00;;;;5060248;28;20189;-45
2023/12/27 10:30:51;;;;;;;1.50;1.40;;;18.90;68.70;19.40;100898.00;;;;5068415;28;20769;-46
2023/12/27 10:33:17;;;;;;;1.60;1.50;;;18.90;68.70;19.50;100902.00;;;;5065842;28;20373;-45
2023/12/27 10:35:43;;;;;;;1.90;1.60;;;18.90;69.40;19.50;100886.00;;;;5064401;28;20205;-46
2023/12/27 10:38:09;;;;;;;1.60;1.50;;;18.90;68.60;19.50;100875.00;;;;5065606;28;20610;-45
2023/12/27 10:40:35;;;;;;;1.50;1.40;;;19.00;68.70;19.50;100867.00;;;;5060008;28;20208;-45
2023/12/27 10:43:01;;;;;;;2.60;1.80;;;19.00;68.80;19.60;100850.00;;;;5049129;28;20220;-45